Time;durP1;ratioP1;P1;durP2;ratioP2;P2;SDS_P1;SDS_P2;PMS_P1;PMS_P2;Temp;Humidity;BMP_temperature;BMP_pressure;BME280_temperature;BME280_humidity;BME280_pressure;Samples;Min_cycle;Max_cycle;Signal;HPM_P1;HPM_P2
2022/12/08 00:00:53;;;;;;;2.37;2.27;;;17.00;65.90;;;;;;5131769;27;43456;-71
2022/12/08 00:03:21;;;;;;;2.67;2.67;;;17.00;65.50;;;;;;5136998;27;43501;-71
2022/12/08 00:11:23;;;;;;;2.43;2.33;;;17.10;64.90;;;;;;5136008;27;43943;-69
2022/12/08 00:13:52;;;;;;;2.53;2.53;;;17.10;65.10;;;;;;5131832;27;43485;-69
2022/12/08 00:16:20;;;;;;;2.73;2.63;;;17.00;65.20;;;;;;5129574;27;43835;-70
2022/12/08 00:18:48;;;;;;;2.43;2.33;;;17.10;65.30;;;;;;5117826;27;44422;-68
2022/12/08 00:21:16;;;;;;;2.33;2.33;;;17.00;65.20;;;;;;5106929;27;43934;-73
2022/12/08 00:23:44;;;;;;;2.37;2.33;;;17.00;65.20;;;;;;5119436;27;43405;-70
2022/12/08 00:26:11;;;;;;;2.60;2.50;;;17.00;65.20;;;;;;5117166;27;44003;-74
2022/12/08 00:28:39;;;;;;;2.83;2.73;;;17.00;65.30;;;;;;5130180;27;43431;-69
2022/12/08 00:31:09;;;;;;;2.43;2.33;;;17.00;65.70;;;;;;5122103;27;43492;-68
2022/12/08 00:33:37;;;;;;;2.50;2.40;;;17.00;65.50;;;;;;5121694;27;43448;-69
2022/12/08 00:36:06;;;;;;;2.33;2.33;;;17.00;65.40;;;;;;5122521;27;43586;-69
2022/12/08 00:38:35;;;;;;;2.77;2.67;;;16.90;65.40;;;;;;5127446;27;43824;-71
2022/12/08 00:41:03;;;;;;;2.50;2.40;;;17.00;65.50;;;;;;5113038;27;43499;-69
2022/12/08 00:43:30;;;;;;;2.60;2.50;;;16.90;65.40;;;;;;5121795;27;43479;-70
2022/12/08 00:45:58;;;;;;;2.47;2.40;;;16.90;65.60;;;;;;5116060;27;45866;-69
2022/12/08 00:48:28;;;;;;;2.70;2.60;;;16.90;65.90;;;;;;5119385;27;44874;-70
2022/12/08 00:50:56;;;;;;;2.23;2.23;;;17.00;65.70;;;;;;5132314;27;43536;-68
2022/12/08 00:53:24;;;;;;;2.30;2.30;;;17.00;65.20;;;;;;5116126;27;43528;-71
2022/12/08 00:55:51;;;;;;;2.60;2.50;;;17.10;65.00;;;;;;5118123;27;45328;-69
2022/12/08 00:58:19;;;;;;;2.27;2.27;;;17.10;64.90;;;;;;5130993;27;43475;-71
2022/12/08 01:00:47;;;;;;;2.40;2.30;;;17.10;65.00;;;;;;5118290;27;43578;-70
2022/12/08 01:03:15;;;;;;;2.40;2.30;;;17.10;65.30;;;;;;5115491;27;43720;-70
2022/12/08 01:05:45;;;;;;;2.43;2.33;;;17.10;65.20;;;;;;5125491;27;44950;-70
2022/12/08 01:08:13;;;;;;;2.60;2.50;;;17.00;65.00;;;;;;5116914;27;44513;-69
2022/12/08 01:10:40;;;;;;;2.70;2.60;;;17.00;65.10;;;;;;5119453;27;45003;-71
2022/12/08 01:13:08;;;;;;;2.63;2.50;;;17.00;65.20;;;;;;5119715;27;43558;-73
2022/12/08 01:15:37;;;;;;;2.50;2.50;;;17.00;65.20;;;;;;5110953;27;44142;-70
2022/12/08 01:18:05;;;;;;;2.40;2.30;;;17.00;65.40;;;;;;5112707;27;43411;-69
2022/12/08 01:20:32;;;;;;;2.77;2.67;;;16.90;65.40;;;;;;5116589;27;43794;-70
2022/12/08 01:23:02;;;;;;;2.87;2.77;;;17.00;65.40;;;;;;5112022;27;43561;-69
2022/12/08 01:25:30;;;;;;;2.80;2.70;;;16.90;65.30;;;;;;5111020;27;43926;-72
2022/12/08 01:27:57;;;;;;;2.43;2.37;;;16.90;65.40;;;;;;5118636;27;43379;-70
2022/12/08 01:30:25;;;;;;;2.40;2.40;;;16.90;65.40;;;;;;5109391;27;43474;-70
2022/12/08 01:32:53;;;;;;;2.77;2.67;;;16.90;65.40;;;;;;5130272;27;43627;-69
2022/12/08 01:35:21;;;;;;;2.70;2.60;;;16.90;65.70;;;;;;5113933;27;46042;-74
2022/12/08 01:37:49;;;;;;;2.30;2.30;;;16.90;65.60;;;;;;5114132;27;43790;-71
2022/12/08 01:40:19;;;;;;;2.73;2.63;;;16.90;65.50;;;;;;5114979;27;43496;-69
2022/12/08 01:42:47;;;;;;;2.30;2.30;;;16.90;65.50;;;;;;5117802;27;43444;-69
2022/12/08 01:45:17;;;;;;;2.50;2.50;;;16.90;65.50;;;;;;5116304;27;43780;-70
2022/12/08 01:47:46;;;;;;;2.60;2.50;;;16.90;65.50;;;;;;5109176;27;44976;-73
2022/12/08 01:50:14;;;;;;;2.50;2.40;;;16.90;65.70;;;;;;5112960;27;43477;-72
2022/12/08 01:52:44;;;;;;;2.83;2.73;;;16.90;65.80;;;;;;5117179;27;43550;-72
2022/12/08 01:55:15;;;;;;;2.40;2.40;;;17.00;65.60;;;;;;5117004;27;44447;-69
2022/12/08 01:57:46;;;;;;;2.63;2.53;;;17.10;65.30;;;;;;5106321;27;43449;-71
2022/12/08 02:00:15;;;;;;;2.50;2.50;;;17.20;64.80;;;;;;5114026;27;43517;-77
2022/12/08 02:02:49;;;;;;;2.40;2.30;;;17.10;64.60;;;;;;5093170;27;43540;-77
2022/12/08 02:05:18;;;;;;;2.37;2.37;;;17.10;64.90;;;;;;5098605;27;43610;-77
2022/12/08 02:07:46;;;;;;;2.30;2.30;;;17.10;65.20;;;;;;5108398;27;43495;-77
2022/12/08 02:10:16;;;;;;;2.50;2.50;;;17.10;65.00;;;;;;5101651;27;43499;-77
2022/12/08 02:12:46;;;;;;;2.40;2.30;;;17.10;65.00;;;;;;5103288;27;43625;-73
2022/12/08 02:15:14;;;;;;;2.50;2.50;;;17.10;65.10;;;;;;5098401;27;43930;-75
2022/12/08 02:17:49;;;;;;;2.60;2.60;;;17.00;65.10;;;;;;5110588;27;43507;-76
2022/12/08 02:20:38;;;;;;;2.50;2.40;;;17.00;65.30;;;;;;5091561;27;44538;-78
2022/12/08 02:23:10;;;;;;;2.57;2.47;;;17.00;65.50;;;;;;5093473;27;43461;-75
2022/12/08 02:25:44;;;;;;;2.27;2.27;;;17.00;65.40;;;;;;5098910;27;43859;-76
2022/12/08 02:28:29;;;;;;;2.60;2.50;;;17.00;65.40;;;;;;5097710;27;44139;-77
2022/12/08 02:31:00;;;;;;;2.07;2.07;;;17.00;65.40;;;;;;5107880;27;43504;-76
2022/12/08 02:33:43;;;;;;;2.20;2.20;;;17.00;65.40;;;;;;5102734;27;43473;-75
2022/12/08 02:36:13;;;;;;;2.90;2.80;;;16.90;65.40;;;;;;5096836;27;43844;-73
2022/12/08 02:38:46;;;;;;;2.43;2.43;;;16.90;65.70;;;;;;5100844;27;46009;-75
2022/12/08 02:41:19;;;;;;;2.80;2.60;;;17.00;65.80;;;;;;5093982;27;43488;-77
2022/12/08 02:43:48;;;;;;;2.40;2.40;;;17.00;65.30;;;;;;5103674;27;43885;-76
2022/12/08 02:46:17;;;;;;;2.73;2.47;;;17.10;65.00;;;;;;5100942;27;44031;-77
2022/12/08 02:48:47;;;;;;;2.43;2.37;;;17.00;64.90;;;;;;5104156;27;43449;-76
2022/12/08 02:51:15;;;;;;;2.70;2.70;;;17.10;65.10;;;;;;5095893;27;44411;-79
2022/12/08 02:53:43;;;;;;;2.57;2.47;;;17.00;65.10;;;;;;5097805;27;43491;-73
2022/12/08 02:56:19;;;;;;;2.23;2.23;;;17.00;65.20;;;;;;5104193;27;43909;-75
2022/12/08 02:58:55;;;;;;;2.67;2.57;;;16.90;65.10;;;;;;5088707;27;44758;-77
2022/12/08 03:01:33;;;;;;;2.57;2.47;;;16.90;65.20;;;;;;5094692;27;43825;-76
2022/12/08 03:04:06;;;;;;;2.47;2.47;;;16.90;65.30;;;;;;5099128;27;43410;-78
2022/12/08 03:06:35;;;;;;;2.90;2.80;;;16.90;65.50;;;;;;5102824;27;43811;-75
2022/12/08 03:09:05;;;;;;;2.70;2.60;;;16.90;65.80;;;;;;5101862;27;43513;-76
2022/12/08 03:11:36;;;;;;;2.80;2.70;;;17.00;65.70;;;;;;5108468;27;43452;-76
2022/12/08 03:14:05;;;;;;;2.63;2.53;;;17.10;65.40;;;;;;5096763;27;43648;-73
2022/12/08 03:16:33;;;;;;;2.60;2.50;;;17.20;65.10;;;;;;5110148;27;43890;-75
2022/12/08 03:19:09;;;;;;;2.50;2.40;;;17.40;64.70;;;;;;5089151;27;44338;-74
2022/12/08 03:21:37;;;;;;;2.30;2.30;;;17.50;64.20;;;;;;5090480;27;43568;-77
2022/12/08 03:24:07;;;;;;;2.70;2.60;;;17.70;63.70;;;;;;5108389;27;43871;-75
2022/12/08 03:26:38;;;;;;;2.87;2.70;;;17.80;63.20;;;;;;5090565;27;45541;-77
2022/12/08 03:29:06;;;;;;;2.90;2.80;;;17.90;62.70;;;;;;5102523;27;43479;-77
2022/12/08 03:31:36;;;;;;;2.63;2.53;;;18.00;62.40;;;;;;5109028;27;43643;-75
2022/12/08 03:34:06;;;;;;;2.40;2.40;;;18.10;62.10;;;;;;5101908;27;43447;-77
2022/12/08 03:36:34;;;;;;;2.70;2.60;;;18.20;61.90;;;;;;5095496;27;43825;-78
2022/12/08 03:39:02;;;;;;;3.00;2.90;;;18.20;61.80;;;;;;5101278;27;44427;-78
2022/12/08 03:41:30;;;;;;;2.70;2.60;;;18.10;61.90;;;;;;5101379;27;43419;-78
2022/12/08 03:43:58;;;;;;;2.90;2.80;;;18.00;62.10;;;;;;5101326;27;43501;-75
2022/12/08 03:46:27;;;;;;;2.70;2.60;;;17.80;62.50;;;;;;5101694;27;45516;-78
2022/12/08 03:48:54;;;;;;;2.60;2.50;;;17.60;63.30;;;;;;5114872;27;43403;-78
2022/12/08 03:51:23;;;;;;;2.70;2.70;;;17.60;64.40;;;;;;5100795;27;43481;-77
2022/12/08 03:53:51;;;;;;;2.93;2.83;;;17.50;63.60;;;;;;5105798;27;43497;-78
2022/12/08 03:56:22;;;;;;;2.77;2.67;;;17.40;63.70;;;;;;5103922;27;45761;-75
2022/12/08 03:58:50;;;;;;;2.70;2.60;;;17.40;64.00;;;;;;5104955;27;44902;-74
2022/12/08 04:01:18;;;;;;;2.80;2.70;;;17.30;64.10;;;;;;5101673;27;43998;-77
2022/12/08 04:03:46;;;;;;;2.20;2.20;;;17.20;64.90;;;;;;5102441;27;43653;-75
2022/12/08 04:06:14;;;;;;;2.73;2.63;;;17.20;64.70;;;;;;5108154;27;43603;-76
2022/12/08 04:08:44;;;;;;;2.40;2.30;;;17.20;64.60;;;;;;5093798;27;43643;-75
2022/12/08 04:11:11;;;;;;;2.63;2.63;;;17.10;64.60;;;;;;5115110;27;43472;-77
2022/12/08 04:13:40;;;;;;;2.93;2.83;;;17.10;64.80;;;;;;5104248;27;43501;-77
2022/12/08 04:16:08;;;;;;;3.00;2.90;;;17.00;64.80;;;;;;5108892;27;45711;-78
2022/12/08 04:18:36;;;;;;;2.97;2.87;;;17.00;65.30;;;;;;5093659;27;43435;-77
2022/12/08 04:21:05;;;;;;;2.90;2.80;;;17.10;65.60;;;;;;5103939;27;43434;-76
2022/12/08 04:23:33;;;;;;;2.90;2.80;;;17.20;65.30;;;;;;5098122;27;43580;-78
2022/12/08 04:26:02;;;;;;;2.80;2.70;;;17.30;64.80;;;;;;5100455;27;43665;-73
2022/12/08 04:28:30;;;;;;;2.73;2.70;;;17.30;64.50;;;;;;5113082;27;44885;-76
2022/12/08 04:30:58;;;;;;;2.87;2.77;;;17.30;64.40;;;;;;5100827;27;43441;-77
2022/12/08 04:33:26;;;;;;;2.80;2.70;;;17.20;64.70;;;;;;5107452;27;43892;-77
2022/12/08 04:35:54;;;;;;;2.40;2.40;;;17.20;64.90;;;;;;5104119;27;43835;-78
2022/12/08 04:38:22;;;;;;;2.83;2.73;;;17.20;64.60;;;;;;5109317;27;44963;-75
2022/12/08 04:40:50;;;;;;;2.73;2.63;;;17.10;64.60;;;;;;5101068;27;43462;-76
2022/12/08 04:43:19;;;;;;;2.93;2.83;;;17.10;64.60;;;;;;5098489;27;43481;-77
2022/12/08 04:45:47;;;;;;;2.93;2.83;;;17.00;64.70;;;;;;5097118;27;43827;-78
2022/12/08 04:48:15;;;;;;;2.73;2.63;;;17.00;64.80;;;;;;5108439;27;43900;-75
2022/12/08 04:50:44;;;;;;;3.20;3.00;;;17.00;65.20;;;;;;5105773;27;43797;-76
2022/12/08 04:53:12;;;;;;;3.10;3.00;;;17.00;65.00;;;;;;5092517;27;43649;-78
2022/12/08 04:55:42;;;;;;;3.57;3.37;;;17.00;64.90;;;;;;5103629;27;43910;-74
2022/12/08 04:58:12;;;;;;;4.53;4.13;;;17.00;64.90;;;;;;5106293;27;44689;-73
2022/12/08 05:00:41;;;;;;;9.30;5.00;;;17.00;65.00;;;;;;5106010;27;43512;-72
2022/12/08 05:03:09;;;;;;;9.37;5.47;;;17.00;65.20;;;;;;5094812;27;43500;-76
2022/12/08 05:05:37;;;;;;;10.63;5.70;;;17.00;65.70;;;;;;5106923;27;43914;-74
2022/12/08 05:08:06;;;;;;;22.43;8.37;;;17.00;65.70;;;;;;5087777;27;43509;-75
2022/12/08 05:10:34;;;;;;;17.93;7.67;;;17.10;66.10;;;;;;5103441;27;43434;-77
2022/12/08 05:13:02;;;;;;;25.37;8.30;;;17.10;64.90;;;;;;5091734;27;45183;-77
2022/12/08 05:15:30;;;;;;;21.63;8.57;;;17.10;64.70;;;;;;5106246;27;43844;-73
2022/12/08 05:17:59;;;;;;;24.93;9.27;;;17.20;64.80;;;;;;5118684;27;43460;-75
2022/12/08 05:20:27;;;;;;;21.80;8.87;;;17.10;65.20;;;;;;5097484;27;44084;-78
2022/12/08 05:22:55;;;;;;;26.53;10.40;;;17.10;65.00;;;;;;5109625;27;43476;-74
2022/12/08 05:25:23;;;;;;;25.50;10.73;;;17.10;64.90;;;;;;5121991;27;43899;-77
2022/12/08 05:27:51;;;;;;;31.30;11.67;;;17.10;65.00;;;;;;5120334;27;43432;-76
2022/12/08 05:30:38;;;;;;;32.33;13.07;;;17.10;65.00;;;;;;5113792;27;44037;-78
2022/12/08 05:33:07;;;;;;;30.30;12.00;;;17.10;65.10;;;;;;5122294;27;43566;-78
2022/12/08 05:35:35;;;;;;;39.53;13.60;;;17.00;65.30;;;;;;5119076;27;43843;-78
2022/12/08 05:38:03;;;;;;;36.90;13.67;;;17.00;65.20;;;;;;5110122;27;43561;-77
2022/12/08 05:40:31;;;;;;;34.77;13.13;;;17.00;65.20;;;;;;5110102;27;43980;-75
2022/12/08 05:42:59;;;;;;;36.63;14.77;;;17.00;65.20;;;;;;5124911;27;43544;-78
2022/12/08 05:45:27;;;;;;;36.87;14.13;;;17.00;65.20;;;;;;5124543;27;45955;-77
2022/12/08 05:47:55;;;;;;;33.50;13.30;;;17.00;65.20;;;;;;5127422;27;43390;-76
2022/12/08 05:50:24;;;;;;;42.70;14.63;;;17.00;65.40;;;;;;5104976;27;43441;-75
2022/12/08 05:52:55;;;;;;;37.90;15.23;;;17.00;65.70;;;;;;5102864;27;44175;-76
2022/12/08 05:55:23;;;;;;;36.07;14.33;;;17.00;65.60;;;;;;5099427;27;43827;-75
2022/12/08 05:57:51;;;;;;;33.67;13.87;;;17.20;65.40;;;;;;5099836;27;44341;-77
2022/12/08 06:00:20;;;;;;;35.37;14.70;;;17.20;64.80;;;;;;5094111;27;43432;-76
2022/12/08 06:02:48;;;;;;;36.03;14.03;;;17.20;64.60;;;;;;5093051;27;43426;-77
2022/12/08 06:05:17;;;;;;;32.77;13.97;;;17.20;64.70;;;;;;5102263;27;43634;-76
2022/12/08 06:07:46;;;;;;;37.43;13.40;;;17.20;65.10;;;;;;5109042;27;43616;-77
2022/12/08 06:10:14;;;;;;;32.30;12.07;;;17.10;64.70;;;;;;5095936;27;43981;-78
2022/12/08 06:12:42;;;;;;;32.00;13.60;;;17.10;64.80;;;;;;5096014;27;43936;-78
2022/12/08 06:15:10;;;;;;;29.50;12.33;;;17.10;64.80;;;;;;5108621;27;43959;-74
2022/12/08 06:17:38;;;;;;;29.10;12.50;;;17.10;65.00;;;;;;5097004;27;43451;-76
2022/12/08 06:20:07;;;;;;;30.00;12.63;;;17.00;65.10;;;;;;5098319;27;43441;-77
2022/12/08 06:22:35;;;;;;;33.47;13.13;;;17.00;65.20;;;;;;5106723;27;44153;-77
2022/12/08 06:25:06;;;;;;;28.83;12.20;;;17.00;65.20;;;;;;5096415;27;43858;-76
2022/12/08 06:27:37;;;;;;;27.77;11.53;;;17.00;65.20;;;;;;5098697;27;44229;-74
2022/12/08 06:30:06;;;;;;;26.93;11.67;;;17.00;65.20;;;;;;5105360;27;43967;-78
2022/12/08 06:32:34;;;;;;;29.67;11.63;;;17.00;65.30;;;;;;5094518;27;43552;-77
2022/12/08 06:35:02;;;;;;;28.17;11.67;;;16.90;65.30;;;;;;5105626;27;43832;-77
2022/12/08 06:37:30;;;;;;;30.13;11.87;;;16.90;65.40;;;;;;5091854;27;43575;-78
2022/12/08 06:39:58;;;;;;;30.17;11.67;;;16.90;65.40;;;;;;5098075;27;43520;-75
2022/12/08 06:42:46;;;;;;;24.57;10.67;;;16.90;65.30;;;;;;5112097;27;43740;-78
2022/12/08 06:45:14;;;;;;;25.87;10.87;;;17.00;65.40;;;;;;5100613;27;43849;-77
2022/12/08 06:47:42;;;;;;;23.43;10.97;;;17.00;65.40;;;;;;5096428;27;44097;-76
2022/12/08 06:50:12;;;;;;;18.67;9.67;;;16.90;65.30;;;;;;5097074;27;43883;-73
2022/12/08 06:52:41;;;;;;;25.73;11.00;;;17.00;65.50;;;;;;5098468;27;43875;-75
2022/12/08 06:55:25;;;;;;;22.93;10.73;;;16.90;66.50;;;;;;5102307;27;43941;-76
2022/12/08 06:58:14;;;;;;;23.10;10.27;;;17.00;65.70;;;;;;5096569;27;44278;-74
2022/12/08 07:00:42;;;;;;;23.97;10.20;;;17.10;65.30;;;;;;5097311;27;44149;-77
2022/12/08 07:03:11;;;;;;;19.40;9.47;;;17.20;64.90;;;;;;5099620;27;43571;-74
2022/12/08 07:05:39;;;;;;;20.57;9.30;;;17.20;64.60;;;;;;5102826;27;43769;-75
2022/12/08 07:08:07;;;;;;;20.40;10.00;;;17.20;64.60;;;;;;5108677;27;44405;-78
2022/12/08 07:10:35;;;;;;;22.77;10.87;;;17.20;65.90;;;;;;5099300;27;43793;-76
2022/12/08 07:13:03;;;;;;;19.50;9.80;;;17.20;64.80;;;;;;5104166;27;43608;-76
2022/12/08 07:15:33;;;;;;;19.20;9.27;;;17.20;64.80;;;;;;5106467;27;46417;-74
2022/12/08 07:18:01;;;;;;;17.07;9.07;;;17.10;64.70;;;;;;5100610;27;44179;-74
2022/12/08 07:20:29;;;;;;;15.37;8.53;;;17.10;64.90;;;;;;5108442;27;43447;-77
2022/12/08 07:22:56;;;;;;;20.10;9.77;;;17.10;65.00;;;;;;5100049;27;43974;-75
2022/12/08 07:25:25;;;;;;;15.10;8.17;;;17.00;65.20;;;;;;5107873;27;43873;-72
2022/12/08 07:27:53;;;;;;;19.03;8.93;;;17.00;65.20;;;;;;5105896;27;43989;-76
2022/12/08 07:30:21;;;;;;;14.40;8.27;;;17.00;65.20;;;;;;5095639;27;43593;-77
2022/12/08 07:32:50;;;;;;;15.83;8.53;;;17.00;65.30;;;;;;5106117;27;43409;-75
2022/12/08 07:35:18;;;;;;;13.67;8.10;;;17.00;65.20;;;;;;5103898;27;43630;-77
2022/12/08 07:37:46;;;;;;;12.80;7.87;;;17.00;65.30;;;;;;5097131;27;45465;-76
2022/12/08 07:40:14;;;;;;;16.17;8.63;;;16.90;65.40;;;;;;5099943;27;43520;-77
2022/12/08 07:42:42;;;;;;;13.00;8.13;;;17.00;65.60;;;;;;5108585;27;44043;-75
2022/12/08 07:45:11;;;;;;;13.07;7.67;;;17.00;65.40;;;;;;5094820;27;43873;-74
2022/12/08 07:47:39;;;;;;;11.77;7.47;;;17.00;65.40;;;;;;5111197;27;43441;-77
2022/12/08 07:50:09;;;;;;;13.87;7.90;;;17.00;65.40;;;;;;5101718;27;43573;-77
2022/12/08 07:52:37;;;;;;;16.60;8.17;;;17.00;66.20;;;;;;5105742;27;43548;-77
2022/12/08 07:55:05;;;;;;;11.40;7.13;;;16.90;65.40;;;;;;5108956;27;45988;-78
2022/12/08 07:57:33;;;;;;;12.03;7.00;;;16.90;65.80;;;;;;5096820;27;43461;-77
2022/12/08 08:00:02;;;;;;;14.20;7.70;;;17.00;65.80;;;;;;5101310;27;43499;-75
2022/12/08 08:02:38;;;;;;;14.20;7.30;;;17.10;65.60;;;;;;5109671;27;43373;-74
2022/12/08 08:05:09;;;;;;;11.37;6.53;;;17.20;65.20;;;;;;5100765;27;45737;-73
2022/12/08 08:07:37;;;;;;;11.77;6.90;;;17.20;64.80;;;;;;5098524;27;44238;-75
2022/12/08 08:10:06;;;;;;;10.80;7.30;;;17.20;64.70;;;;;;5109413;27;44288;-77
2022/12/08 08:12:35;;;;;;;11.87;7.30;;;17.20;65.00;;;;;;5101639;27;43988;-77
2022/12/08 08:15:03;;;;;;;13.47;7.63;;;17.10;65.00;;;;;;5099106;27;43890;-78
2022/12/08 08:17:31;;;;;;;8.83;6.60;;;17.10;65.00;;;;;;5099837;27;43878;-76
2022/12/08 08:20:00;;;;;;;11.57;7.37;;;17.10;64.90;;;;;;5104090;27;43369;-76
2022/12/08 08:22:29;;;;;;;9.47;6.60;;;17.10;65.00;;;;;;5109432;27;43632;-76
2022/12/08 08:24:57;;;;;;;9.50;6.13;;;17.00;65.10;;;;;;5098309;27;45972;-77
2022/12/08 08:27:25;;;;;;;10.73;7.07;;;17.00;65.20;;;;;;5095967;27;43429;-76
2022/12/08 08:29:53;;;;;;;9.83;6.97;;;17.00;65.40;;;;;;5108893;27;43468;-76
2022/12/08 08:32:21;;;;;;;10.73;6.70;;;17.00;65.20;;;;;;5097466;27;43466;-76
2022/12/08 08:34:49;;;;;;;10.77;6.70;;;17.00;65.30;;;;;;5099949;27;44325;-77
2022/12/08 08:37:17;;;;;;;6.70;5.70;;;17.00;65.30;;;;;;5106853;27;44037;-75
2022/12/08 08:39:47;;;;;;;8.70;6.17;;;17.00;65.40;;;;;;5100940;27;43485;-76
2022/12/08 08:42:14;;;;;;;8.67;6.30;;;16.90;65.30;;;;;;5106489;27;43495;-75
2022/12/08 08:44:42;;;;;;;8.27;6.23;;;17.00;65.80;;;;;;5102088;27;44077;-76
2022/12/08 08:47:10;;;;;;;8.17;6.73;;;17.00;65.80;;;;;;5105031;27;43707;-72
2022/12/08 08:49:38;;;;;;;9.40;6.17;;;17.00;65.40;;;;;;5099210;27;43421;-75
2022/12/08 08:52:06;;;;;;;9.23;6.50;;;17.10;65.20;;;;;;5108434;27;43495;-76
2022/12/08 08:54:34;;;;;;;7.47;6.30;;;17.10;65.10;;;;;;5099680;27;44065;-73
2022/12/08 08:57:03;;;;;;;7.30;5.73;;;17.10;65.10;;;;;;5098147;27;44713;-77
2022/12/08 08:59:31;;;;;;;8.47;6.23;;;17.00;65.20;;;;;;5099232;27;43944;-76
2022/12/08 09:01:59;;;;;;;7.57;5.97;;;17.00;65.20;;;;;;5101079;27;43502;-77
2022/12/08 09:04:27;;;;;;;7.27;5.87;;;17.00;65.20;;;;;;5097180;27;45678;-78
2022/12/08 09:06:55;;;;;;;7.00;5.70;;;17.00;65.20;;;;;;5110292;27;43528;-78
2022/12/08 09:09:23;;;;;;;7.70;6.23;;;17.00;65.20;;;;;;5124725;27;43382;-75
2022/12/08 09:11:51;;;;;;;7.37;5.80;;;17.00;65.30;;;;;;5119322;27;43388;-78
2022/12/08 09:14:21;;;;;;;6.97;5.73;;;17.00;65.40;;;;;;5120821;27;43947;-78
2022/12/08 09:16:50;;;;;;;6.70;5.53;;;17.00;65.80;;;;;;5117045;27;43472;-77
2022/12/08 09:19:18;;;;;;;8.37;5.93;;;17.00;65.80;;;;;;5116393;27;43935;-77
2022/12/08 09:21:46;;;;;;;6.33;5.60;;;17.10;65.50;;;;;;5114565;27;43499;-77
2022/12/08 09:24:15;;;;;;;6.27;5.57;;;17.10;65.10;;;;;;5119102;27;43846;-76
2022/12/08 09:26:43;;;;;;;6.30;5.70;;;17.10;65.00;;;;;;5121573;27;44430;-76
2022/12/08 09:29:12;;;;;;;7.50;5.97;;;17.10;65.10;;;;;;5122042;27;44114;-74
2022/12/08 09:31:42;;;;;;;6.27;5.20;;;17.00;65.10;;;;;;5123548;27;43875;-78
2022/12/08 09:34:10;;;;;;;6.93;5.73;;;17.00;66.00;;;;;;5120475;27;43618;-76
2022/12/08 09:36:38;;;;;;;6.20;5.60;;;17.00;65.20;;;;;;5117999;27;43490;-77
2022/12/08 09:39:06;;;;;;;5.90;5.30;;;17.00;65.30;;;;;;5112299;27;43469;-75
2022/12/08 09:41:35;;;;;;;5.57;5.07;;;17.00;65.20;;;;;;5116560;27;43455;-76
2022/12/08 09:44:21;;;;;;;6.20;5.50;;;17.00;65.30;;;;;;5119890;27;43610;-76
2022/12/08 09:46:51;;;;;;;5.33;4.90;;;17.00;65.30;;;;;;5116209;27;43389;-77
2022/12/08 09:49:21;;;;;;;5.73;5.30;;;16.90;65.40;;;;;;5097193;27;43941;-76
2022/12/08 09:51:49;;;;;;;5.67;5.17;;;16.90;65.30;;;;;;5099701;27;44399;-76
2022/12/08 09:54:18;;;;;;;5.87;5.20;;;17.00;65.40;;;;;;5103345;27;43916;-78
2022/12/08 09:56:46;;;;;;;6.30;5.70;;;16.90;65.40;;;;;;5097394;27;45137;-76
2022/12/08 09:59:22;;;;;;;5.03;4.63;;;16.90;65.40;;;;;;5102271;27;43977;-75
2022/12/08 10:01:51;;;;;;;4.97;4.57;;;16.90;65.40;;;;;;5109297;27;43885;-76
2022/12/08 10:04:23;;;;;;;5.70;5.10;;;16.90;65.70;;;;;;5100496;27;44124;-75
2022/12/08 10:07:00;;;;;;;5.20;4.70;;;17.00;65.70;;;;;;5105711;27;43827;-77
2022/12/08 10:09:32;;;;;;;5.20;4.80;;;17.00;65.20;;;;;;5111757;27;43385;-74
2022/12/08 10:12:02;;;;;;;4.13;3.83;;;17.10;65.20;;;;;;5118554;27;43406;-77
2022/12/08 10:14:33;;;;;;;4.13;3.87;;;17.10;65.20;;;;;;5100203;27;45295;-71
2022/12/08 10:17:04;;;;;;;5.03;4.63;;;17.00;65.10;;;;;;5113560;27;43412;-76
2022/12/08 10:19:32;;;;;;;5.10;4.57;;;17.00;65.20;;;;;;5106592;27;43526;-77
2022/12/08 10:22:00;;;;;;;4.30;4.03;;;17.00;65.30;;;;;;5118923;27;44032;-76
2022/12/08 10:24:32;;;;;;;4.60;4.30;;;17.00;65.30;;;;;;5124082;27;45018;-76
2022/12/08 10:27:00;;;;;;;4.73;4.33;;;17.00;65.30;;;;;;5120069;27;43393;-76
2022/12/08 10:29:28;;;;;;;4.40;4.20;;;17.00;65.30;;;;;;5114505;27;44011;-78
2022/12/08 10:31:57;;;;;;;4.57;4.27;;;16.90;65.30;;;;;;5119059;27;43517;-78
2022/12/08 10:34:26;;;;;;;4.53;4.33;;;16.90;65.50;;;;;;5107473;27;44215;-76
2022/12/08 10:36:55;;;;;;;4.80;4.40;;;16.90;65.80;;;;;;5107093;27;44004;-77
2022/12/08 10:39:31;;;;;;;4.50;4.27;;;17.00;65.50;;;;;;5113262;27;43609;-76
2022/12/08 10:42:06;;;;;;;4.93;4.60;;;17.10;65.30;;;;;;5119343;27;43404;-77
2022/12/08 10:44:35;;;;;;;4.00;3.80;;;17.10;65.10;;;;;;5111787;27;43919;-77
2022/12/08 10:47:11;;;;;;;4.07;3.87;;;17.10;65.10;;;;;;5110194;27;43442;-76
2022/12/08 10:49:41;;;;;;;4.47;4.17;;;17.10;65.30;;;;;;5118166;27;43475;-75
2022/12/08 10:52:14;;;;;;;4.30;4.00;;;17.00;65.20;;;;;;5118946;27;43931;-78
2022/12/08 10:54:42;;;;;;;4.70;4.30;;;17.00;65.20;;;;;;5118492;27;45552;-77
2022/12/08 10:57:14;;;;;;;4.10;3.90;;;17.00;65.30;;;;;;5114724;27;43398;-75
2022/12/08 10:59:42;;;;;;;4.63;4.23;;;17.00;65.20;;;;;;5119368;27;43909;-73
2022/12/08 11:02:10;;;;;;;4.07;3.83;;;17.00;65.30;;;;;;5127911;27;43436;-76
2022/12/08 11:04:38;;;;;;;3.93;3.73;;;17.00;65.30;;;;;;5122532;27;45530;-76
2022/12/08 11:07:09;;;;;;;4.20;3.90;;;17.00;66.10;;;;;;5120788;27;43520;-78
2022/12/08 11:09:39;;;;;;;4.00;3.80;;;17.00;65.80;;;;;;5124610;27;43444;-75
2022/12/08 11:12:09;;;;;;;4.10;3.90;;;17.00;65.40;;;;;;5124970;27;44915;-76
2022/12/08 11:14:48;;;;;;;4.13;3.90;;;17.10;65.10;;;;;;5123113;27;43913;-76
2022/12/08 11:17:17;;;;;;;3.87;3.67;;;17.10;65.00;;;;;;5107227;27;44796;-77
2022/12/08 11:19:46;;;;;;;3.97;3.77;;;17.10;65.00;;;;;;5109656;27;44074;-76
2022/12/08 11:22:22;;;;;;;4.27;3.97;;;17.10;65.10;;;;;;5117512;27;43953;-78
2022/12/08 11:24:57;;;;;;;4.13;3.83;;;17.10;65.30;;;;;;5107044;27;43810;-77
2022/12/08 11:27:25;;;;;;;4.00;3.80;;;17.10;65.20;;;;;;5103188;27;43512;-76
2022/12/08 11:29:53;;;;;;;3.80;3.63;;;17.00;64.80;;;;;;5106745;27;43446;-72
2022/12/08 11:32:21;;;;;;;3.70;3.60;;;17.00;64.70;;;;;;5103179;27;43504;-77
2022/12/08 11:34:50;;;;;;;4.30;4.00;;;17.00;64.60;;;;;;5107835;27;44783;-77
2022/12/08 11:37:20;;;;;;;3.93;3.73;;;17.00;64.80;;;;;;5122964;27;43618;-77
2022/12/08 11:39:53;;;;;;;4.10;3.87;;;17.00;65.10;;;;;;5119781;27;43424;-77
2022/12/08 11:42:24;;;;;;;4.27;4.07;;;17.00;64.90;;;;;;5116605;27;43903;-74
2022/12/08 11:44:54;;;;;;;4.10;3.90;;;17.00;65.10;;;;;;5106067;27;45450;-78
2022/12/08 11:47:24;;;;;;;4.07;3.87;;;17.00;65.10;;;;;;5105262;27;43466;-76
2022/12/08 11:49:55;;;;;;;4.10;3.83;;;17.00;65.20;;;;;;5106414;27;43421;-77
2022/12/08 11:52:27;;;;;;;4.03;3.83;;;17.00;65.20;;;;;;5106275;27;43465;-77
2022/12/08 11:54:59;;;;;;;4.10;3.90;;;17.00;65.30;;;;;;5115355;27;45417;-78
2022/12/08 11:57:27;;;;;;;4.17;3.97;;;17.00;65.50;;;;;;5109317;27;43445;-76
2022/12/08 11:59:56;;;;;;;3.53;3.43;;;17.10;65.30;;;;;;5108629;27;43426;-76
2022/12/08 12:02:25;;;;;;;3.80;3.50;;;17.10;64.80;;;;;;5110737;27;43542;-76
2022/12/08 12:04:55;;;;;;;3.57;3.47;;;17.10;64.70;;;;;;5113546;27;43999;-76
2022/12/08 12:07:54;;;;;;;3.70;3.60;;;17.10;64.90;;;;;;5114843;27;43389;-76
2022/12/08 12:10:57;;;;;;;3.73;3.53;;;17.00;64.80;;;;;;5113535;27;43881;-77
2022/12/08 12:13:38;;;;;;;3.50;3.40;;;17.00;64.90;;;;;;5082554;27;43551;-77
2022/12/08 12:16:17;;;;;;;3.70;3.47;;;17.00;64.90;;;;;;5123932;27;43777;-77
2022/12/08 12:18:45;;;;;;;3.63;3.53;;;17.00;64.90;;;;;;5118808;27;44306;-76
2022/12/08 12:21:17;;;;;;;3.97;3.77;;;17.00;65.00;;;;;;5122076;27;43524;-76
2022/12/08 12:23:46;;;;;;;3.53;3.33;;;17.00;65.10;;;;;;5121844;27;43477;-76
2022/12/08 12:26:19;;;;;;;3.67;3.47;;;17.00;65.20;;;;;;5120114;27;44050;-77
2022/12/08 12:28:51;;;;;;;3.70;3.57;;;16.90;65.40;;;;;;5109956;27;46291;-77
2022/12/08 12:31:21;;;;;;;3.73;3.43;;;17.00;65.30;;;;;;5107922;27;43826;-75
2022/12/08 12:33:49;;;;;;;3.37;3.27;;;17.10;64.90;;;;;;5111970;27;44069;-75
2022/12/08 12:36:17;;;;;;;3.40;3.20;;;17.10;64.70;;;;;;5106453;27;45881;-75
2022/12/08 12:39:02;;;;;;;3.27;3.17;;;17.10;64.70;;;;;;5110653;27;43377;-75
2022/12/08 12:41:35;;;;;;;3.53;3.33;;;17.10;64.70;;;;;;5116208;27;43449;-76
2022/12/08 12:44:23;;;;;;;3.40;3.20;;;17.10;64.90;;;;;;5113029;27;43899;-75
2022/12/08 12:46:55;;;;;;;2.70;2.60;;;17.10;64.90;;;;;;5109116;27;43602;-78
2022/12/08 12:49:49;;;;;;;3.10;3.00;;;17.10;65.00;;;;;;5118648;27;44304;-75
2022/12/08 12:52:36;;;;;;;3.10;3.00;;;17.00;65.00;;;;;;5103593;27;43384;-78
2022/12/08 12:55:44;;;;;;;3.07;2.97;;;17.00;65.10;;;;;;5103262;27;43453;-77
2022/12/08 12:58:22;;;;;;;3.00;2.90;;;17.00;65.30;;;;;;5107113;27;43603;-76
2022/12/08 13:00:50;;;;;;;3.17;3.07;;;17.00;65.20;;;;;;5100647;27;44394;-77
2022/12/08 13:03:18;;;;;;;3.20;3.10;;;17.00;65.20;;;;;;5106166;27;43460;-74